GosportINWX Station Historical Data
 
Daily Summary for September 21, 2020 Units:  English    Metric   Both
Daily Weekly Monthly Yearly Custom
  Current: High: Low: Average:
Temperature: 71.3 °F 71.4 °F 41.5 °F 49.8 °F
Dew Point: 47.5 °F 48.5 °F 36.9 °F 40.9 °F
Humidity: 42.6% 86% 42.1% 73%
Wind Speed: 6mph 8mph 0mph 1.4mph
Wind Gust: 7.8mph 13.3mph - -
WindNE - - South
Pressure: 30.02 in 30.07 in 30.02 in -
Precipitation: 0.00 in      
 
 
Tabular Data for September 21, 2020
Time Temperature Dew Point Pressure Wind Wind Speed Wind Gust Humidity Rainfall Rate (Hourly) solar
00:04 48.2 °F 38.1 °F 30.06 in Calm     68% 0.00 in W/m2
00:09 48.1 °F 38.3 °F 30.06 in Calm     68.9% 0.00 in W/m2
00:14 47.8 °F 38.5 °F 30.06 in Calm     70% 0.00 in W/m2
00:19 47.7 °F 38.4 °F 30.06 in Calm     70% 0.00 in W/m2
00:24 47.5 °F 38.2 °F 30.06 in Calm     70.1% 0.00 in W/m2
00:29 47.3 °F 38.4 °F 30.06 in Calm     71% 0.00 in W/m2
00:34 47.1 °F 38.2 °F 30.06 in Calm     71% 0.00 in W/m2
00:39 46.9 °F 38 °F 30.06 in Calm     71% 0.00 in W/m2
00:44 46.7 °F 37.8 °F 30.06 in Calm     71% 0.00 in W/m2
00:49 46.3 °F 37.6 °F 30.05 in Calm     71.4% 0.00 in W/m2
00:54 46.1 °F 37.6 °F 30.05 in Calm     72% 0.00 in W/m2
00:59 46 °F 37.5 °F 30.05 in Calm     72% 0.00 in W/m2
01:04 45.9 °F 37.5 °F 30.05 in Calm     72.4% 0.00 in W/m2
01:09 45.7 °F 37.5 °F 30.05 in Calm     73% 0.00 in W/m2
01:14 45.5 °F 37.4 °F 30.05 in Calm     73% 0.00 in W/m2
01:19 45.4 °F 37.3 °F 30.05 in Calm     73% 0.00 in W/m2
01:24 45.3 °F 37.2 °F 30.05 in Calm     73% 0.00 in W/m2
01:29 45.1 °F 37.1 °F 30.05 in Calm     73.1% 0.00 in W/m2
01:34 45.1 °F 37.4 °F 30.05 in Calm     74% 0.00 in W/m2
01:39 45 °F 37.2 °F 30.05 in Calm     74% 0.00 in W/m2
01:44 44.9 °F 37.1 °F 30.04 in Calm     74% 0.00 in W/m2
01:49 44.7 °F 36.9 °F 30.04 in Calm     74% 0.00 in W/m2
01:54 44.5 °F 36.9 °F 30.05 in Calm     74.5% 0.00 in W/m2
01:59 44.4 °F 37.1 °F 30.05 in Calm     75.4% 0.00 in W/m2
02:04 44.2 °F 37.2 °F 30.04 in Calm     76% 0.00 in W/m2
02:09 44.2 °F 37.2 °F 30.04 in Calm     76% 0.00 in W/m2
02:14 44.2 °F 37.4 °F 30.04 in Calm     76.8% 0.00 in W/m2
02:19 44.2 °F 37.5 °F 30.05 in Calm     77% 0.00 in W/m2
02:24 44.2 °F 37.8 °F 30.05 in Calm     78% 0.00 in W/m2
02:29 44.2 °F 37.8 °F 30.04 in Calm     78.1% 0.00 in W/m2
02:34 44.2 °F 38.1 °F 30.04 in Calm     79% 0.00 in W/m2
02:39 44.2 °F 38.2 °F 30.04 in Calm     79.2% 0.00 in W/m2
02:44 44.1 °F 38.4 °F 30.04 in Calm     80% 0.00 in W/m2
02:49 44.1 °F 38.3 °F 30.05 in Calm     80% 0.00 in W/m2
02:54 44.1 °F 38.5 °F 30.04 in Calm     80.6% 0.00 in W/m2
02:59 44.1 °F 38.6 °F 30.05 in Calm     81% 0.00 in W/m2
03:04 44.1 °F 38.6 °F 30.05 in Calm     81% 0.00 in W/m2
03:09 44.1 °F 38.8 °F 30.05 in Calm     81.6% 0.00 in W/m2
03:14 44.1 °F 38.9 °F 30.05 in Calm     82% 0.00 in W/m2
03:19 44.1 °F 38.9 °F 30.04 in Calm     82% 0.00 in W/m2
03:24 44 °F 38.8 °F 30.04 in Calm     82% 0.00 in W/m2
03:29 43.8 °F 38.7 °F 30.04 in Calm     82% 0.00 in W/m2
03:34 43.7 °F 38.6 °F 30.04 in Calm     82% 0.00 in W/m2
03:39 43.7 °F 38.6 °F 30.04 in Calm     82% 0.00 in W/m2
03:44 43.7 °F 38.6 °F 30.04 in Calm     82% 0.00 in W/m2
03:49 43.5 °F 38.4 °F 30.04 in Calm     82% 0.00 in W/m2
03:54 43.5 °F 38.4 °F 30.03 in Calm     82% 0.00 in W/m2
03:59 43.5 °F 38.4 °F 30.03 in Calm     82% 0.00 in W/m2
04:04 43.5 °F 38.4 °F 30.03 in Calm     82% 0.00 in W/m2
04:09 43.6 °F 38.5 °F 30.03 in Calm     82% 0.00 in W/m2
04:14 43.7 °F 38.6 °F 30.03 in Calm     82% 0.00 in W/m2
04:19 43.7 °F 38.6 °F 30.03 in Calm     82% 0.00 in W/m2
04:24 43.7 °F 38.6 °F 30.03 in Calm     82% 0.00 in W/m2
04:29 43.7 °F 38.6 °F 30.03 in Calm     82% 0.00 in W/m2
04:34 43.7 °F 38.6 °F 30.03 in Calm     82% 0.00 in W/m2
04:39 43.6 °F 38.5 °F 30.03 in Calm     82% 0.00 in W/m2
04:44 43.4 °F 38.3 °F 30.03 in Calm     82% 0.00 in W/m2
04:49 43.3 °F 38.1 °F 30.02 in Calm     82% 0.00 in W/m2
04:54 43.2 °F 38 °F 30.03 in Calm     82% 0.00 in W/m2
04:59 43.2 °F 38 °F 30.03 in Calm     82% 0.00 in W/m2
05:04 43.2 °F 38 °F 30.03 in Calm     82% 0.00 in W/m2
05:09 43.2 °F 38 °F 30.03 in Calm     82% 0.00 in W/m2
05:14 43.2 °F 38 °F 30.03 in Calm     82% 0.00 in W/m2
05:19 43.2 °F 38 °F 30.04 in Calm     82% 0.00 in W/m2
05:24 43.2 °F 38 °F 30.04 in Calm     82% 0.00 in W/m2
05:29 43 °F 37.9 °F 30.04 in Calm     82% 0.00 in W/m2
05:34 43 °F 37.9 °F 30.04 in Calm     82% 0.00 in W/m2
05:39 42.9 °F 37.8 °F 30.04 in Calm     82% 0.00 in W/m2
05:44 42.8 °F 37.7 °F 30.04 in Calm     82% 0.00 in W/m2
05:49 42.6 °F 37.8 °F 30.04 in Calm     82.9% 0.00 in W/m2
05:54 42.4 °F 37.7 °F 30.04 in Calm     83% 0.00 in W/m2
05:59 42.3 °F 37.5 °F 30.04 in Calm     83% 0.00 in W/m2
06:04 42.3 °F 37.5 °F 30.04 in Calm     83% 0.00 in W/m2
06:09 42.3 °F 37.6 °F 30.04 in Calm     83.4% 0.00 in W/m2
06:14 42.2 °F 37.7 °F 30.04 in Calm     84% 0.00 in W/m2
06:19 42.1 °F 37.6 °F 30.04 in Calm     84% 0.00 in W/m2
06:24 42.2 °F 37.7 °F 30.04 in Calm     84% 0.00 in W/m2
06:29 42.3 °F 37.8 °F 30.04 in Calm     84% 0.00 in W/m2
06:34 42.4 °F 38 °F 30.04 in Calm     84% 0.00 in W/m2
06:39 42.4 °F 38 °F 30.04 in Calm     84% 0.00 in W/m2
06:44 42.3 °F 37.8 °F 30.04 in Calm     84% 0.00 in W/m2
06:49 42.3 °F 37.8 °F 30.04 in Calm     84% 0.00 in W/m2
06:54 42.1 °F 37.6 °F 30.04 in Calm     84% 0.00 in W/m2
06:59 42.1 °F 37.6 °F 30.04 in Calm     84% 0.00 in W/m2
07:04 42 °F 37.5 °F 30.04 in Calm     84% 0.00 in W/m2
07:09 41.9 °F 37.4 °F 30.04 in Calm     84% 0.00 in W/m2
07:14 41.9 °F 37.4 °F 30.04 in Calm     84% 0.00 in W/m2
07:19 41.9 °F 37.4 °F 30.04 in Calm     84% 0.00 in W/m2
07:24 41.9 °F 37.4 °F 30.04 in Calm     84% 0.00 in W/m2
07:29 41.9 °F 37.7 °F 30.04 in Calm     84.9% 0.00 in W/m2
07:34 41.9 °F 37.7 °F 30.04 in Calm     85% 0.00 in W/m2
07:39 41.7 °F 37.6 °F 30.04 in Calm     85% 0.00 in W/m2
07:44 41.7 °F 37.6 °F 30.04 in Calm     85% 0.00 in W/m2
07:49 41.7 °F 37.6 °F 30.04 in Calm     85% 0.00 in W/m2
07:54 41.5 °F 37.4 °F 30.05 in Calm     85% 0.00 in W/m2
07:59 41.5 °F 37.4 °F 30.05 in Calm     85% 0.00 in W/m2
08:04 41.5 °F 37.4 °F 30.05 in Calm     85% 0.00 in W/m2
08:09 41.5 °F 37.4 °F 30.05 in Calm     85% 0.00 in W/m2
08:14 41.5 °F 37.4 °F 30.05 in Calm     85% 0.00 in W/m2
08:19 41.5 °F 37.4 °F 30.05 in Calm     85% 0.00 in W/m2
08:24 41.5 °F 37.4 °F 30.05 in Calm     85% 0.00 in W/m2
08:29 41.6 °F 37.5 °F 30.05 in NW 0.2 mph 1.7 mph 85% 0.00 in W/m2
08:34 41.7 °F 37.6 °F 30.06 in NW 0.1 mph 1.7 mph 85% 0.00 in W/m2
08:39 41.9 °F 37.7 °F 30.06 in Calm   1.7 mph 85% 0.00 in W/m2
08:44 42 °F 37.8 °F 30.05 in Calm   1.7 mph 85% 0.00 in W/m2
08:49 42.3 °F 38.2 °F 30.06 in NW 0.2 mph 1.7 mph 85.3% 0.00 in W/m2
08:54 42.6 °F 38.6 °F 30.05 in NW 0.1 mph 1.7 mph 85.9% 0.00 in W/m2
08:59 43 °F 38.8 °F 30.06 in NW 0.3 mph 1.7 mph 85% 0.00 in W/m2
09:04 43.4 °F 39.2 °F 30.06 in NW 0.2 mph 1.7 mph 85% 0.00 in W/m2
09:09 44 °F 39.9 °F 30.06 in Calm   1.7 mph 85.6% 0.00 in W/m2
09:14 44.6 °F 40.5 °F 30.06 in NW 0.8 mph 3.9 mph 85.4% 0.00 in W/m2
09:19 45.2 °F 41 °F 30.06 in Calm   3.9 mph 85% 0.00 in W/m2
09:24 46.2 °F 42.1 °F 30.06 in NW 0.1 mph 3.9 mph 85.5% 0.00 in W/m2
09:29 46.9 °F 42.9 °F 30.06 in NW 1.5 mph 5.5 mph 86% 0.00 in W/m2
09:34 47.8 °F 43.7 °F 30.06 in NW 1.8 mph 5.5 mph 85.7% 0.00 in W/m2
09:39 48.8 °F 44.5 °F 30.06 in NW 3.5 mph 7.8 mph 85% 0.00 in W/m2
09:44 50 °F 45.4 °F 30.06 in NW 5.1 mph 11.1 mph 84.2% 0.00 in W/m2
09:49 50.9 °F 45.9 °F 30.06 in NNW 1.6 mph 11.1 mph 83% 0.00 in W/m2
09:54 51.4 °F 46 °F 30.06 in North 0.6 mph 11.1 mph 81.6% 0.00 in W/m2
09:59 51.8 °F 45.8 °F 30.06 in North 1 mph 7.8 mph 79.6% 0.00 in W/m2
10:04 52.2 °F 45.9 °F 30.06 in Calm   3.9 mph 79% 0.00 in W/m2
10:09 52.7 °F 46 °F 30.06 in North 0.7 mph 5.5 mph 78.1% 0.00 in W/m2
10:14 53.7 °F 46.1 °F 30.06 in North 4.7 mph 7.8 mph 75.2% 0.00 in W/m2
10:19 54.8 °F 46.7 °F 30.06 in North 2.9 mph 7.8 mph 74.2% 0.00 in W/m2
10:24 55.8 °F 47.5 °F 30.06 in North 2.6 mph 7.8 mph 73.6% 0.00 in W/m2
10:29 56.8 °F 47.5 °F 30.06 in North 5.7 mph 9.4 mph 70.9% 0.00 in W/m2
10:34 57.9 °F 47.7 °F 30.06 in North 1.8 mph 9.4 mph 68.8% 0.00 in W/m2
10:39 58.7 °F 48 °F 30.06 in North 3.5 mph 9.4 mph 67.6% 0.00 in W/m2
10:44 59.4 °F 48.1 °F 30.07 in North 4.5 mph 11.1 mph 66.1% 0.00 in W/m2
10:49 60.2 °F 48.1 °F 30.07 in NE 6.3 mph 11.1 mph 64.4% 0.00 in W/m2
10:54 60.9 °F 47.7 °F 30.07 in ENE 6.6 mph 11.1 mph 61.8% 0.00 in W/m2
10:59 61.5 °F 47.4 °F 30.06 in NE 5.5 mph 13.3 mph 59.9% 0.00 in W/m2
11:04 62 °F 47.9 °F 30.07 in NE 5.1 mph 13.3 mph 59.8% 0.00 in W/m2
11:09 62.5 °F 47.4 °F 30.06 in NE 5.8 mph 13.3 mph 57.7% 0.00 in W/m2
11:14 62.9 °F 47.4 °F 30.06 in NE 3 mph 9.4 mph 57% 0.00 in W/m2
11:19 63.2 °F 47.3 °F 30.06 in NE 6.3 mph 9.4 mph 56% 0.00 in W/m2
11:24 63.7 °F 47.3 °F 30.07 in NE 5.8 mph 9.4 mph 55% 0.00 in W/m2
11:29 64.2 °F 47.7 °F 30.06 in NE 5 mph 9.4 mph 54.9% 0.00 in W/m2
11:34 64.7 °F 48.1 °F 30.06 in NE 6.8 mph 11.1 mph 55% 0.00 in W/m2
11:39 64.9 °F 48.2 °F 30.06 in ENE 5.4 mph 11.1 mph 54.5% 0.00 in W/m2
11:44 65.4 °F 48.5 °F 30.06 in ENE 5.4 mph 11.1 mph 54.4% 0.00 in W/m2
11:49 65.6 °F 47.1 °F 30.06 in NE 6.6 mph 11.1 mph 51.2% 0.00 in W/m2
11:54 65.8 °F 48 °F 30.06 in NE 4.2 mph 11.1 mph 52.5% 0.00 in W/m2
11:59 66.1 °F 47.7 °F 30.06 in SE 6.2 mph 11.1 mph 51.3% 0.00 in W/m2
12:04 66.4 °F 47.6 °F 30.06 in ESE 6.7 mph 11.1 mph 50.6% 0.00 in W/m2
12:09 66.6 °F 47.7 °F 30.05 in ESE 4.7 mph 11.1 mph 50.6% 0.00 in W/m2
12:14 67 °F 48.3 °F 30.05 in East 0.9 mph 11.1 mph 51% 0.00 in W/m2
12:19 67.3 °F 48.5 °F 30.05 in East 2.6 mph 5.5 mph 50.9% 0.00 in W/m2
12:24 67.6 °F 47.9 °F 30.05 in East 4.3 mph 7.8 mph 49.3% 0.00 in W/m2
12:29 67.9 °F 47.8 °F 30.05 in East 4.3 mph 7.8 mph 48.4% 0.00 in W/m2
12:34 68.3 °F 47.5 °F 30.04 in East 2.6 mph 7.8 mph 47.3% 0.00 in W/m2
12:39 68.5 °F 47.6 °F 30.04 in East 3.8 mph 5.5 mph 47.3% 0.00 in W/m2
12:44 68.6 °F 47.4 °F 30.04 in East 4.7 mph 5.5 mph 46.6% 0.00 in W/m2
12:49 68.8 °F 47.2 °F 30.04 in East 5.3 mph 11.1 mph 46% 0.00 in W/m2
12:54 69.1 °F 47.6 °F 30.04 in East 6.7 mph 11.1 mph 46.2% 0.00 in W/m2
12:59 69.2 °F 47.6 °F 30.04 in ESE 4.6 mph 11.1 mph 46% 0.00 in W/m2
13:04 69.6 °F 47.7 °F 30.04 in ESE 5.7 mph 9.4 mph 45.7% 0.00 in W/m2
13:09 69.9 °F 47 °F 30.04 in East 8 mph 13.3 mph 44% 0.00 in W/m2
13:14 70.2 °F 46.9 °F 30.03 in East 5.3 mph 13.3 mph 43.4% 0.00 in W/m2
13:19 70.3 °F 47.1 °F 30.04 in ESE 5.1 mph 13.3 mph 43.5% 0.00 in W/m2
13:24 70.6 °F 47 °F 30.03 in ESE 5.6 mph 11.1 mph 42.8% 0.00 in W/m2
13:29 70.9 °F 46.8 °F 30.03 in SE 7.3 mph 9.4 mph 42.1% 0.00 in W/m2
13:34 71.1 °F 46.9 °F 30.03 in SSE 5.6 mph 9.4 mph 42.2% 0.00 in W/m2
13:39 71.2 °F 47.3 °F 30.03 in ESE 3.8 mph 9.4 mph 42.5% 0.00 in W/m2
13:44 71.4 °F 47.4 °F 30.03 in NE 5.8 mph 9.4 mph 42.3% 0.00 in W/m2
13:49 71.3 °F 47.5 °F 30.02 in NE 6 mph 7.8 mph 42.6% 0.00 in W/m2
Juneau County Weather
Compliments of Weather Underground - 4 mb